createdAt,value
2017-07-23T00:00:36.995Z,22.20
2017-07-23T00:03:04.456Z,22.20
2017-07-23T00:05:31.901Z,22.20
2017-07-23T00:07:59.462Z,22.10
2017-07-23T00:10:26.896Z,22.10
2017-07-23T00:12:54.365Z,22.00
2017-07-23T00:15:21.840Z,21.90
2017-07-23T00:17:49.384Z,21.80
2017-07-23T00:20:16.830Z,21.80
2017-07-23T00:22:44.273Z,21.80
2017-07-23T00:25:11.734Z,21.80
2017-07-23T00:27:39.178Z,21.70
2017-07-23T00:30:06.643Z,21.70
2017-07-23T00:32:34.088Z,21.70
2017-07-23T00:35:01.572Z,21.60
2017-07-23T00:37:29.014Z,21.60
2017-07-23T00:39:56.477Z,21.70
2017-07-23T00:42:23.939Z,21.60
2017-07-23T00:44:51.411Z,21.50
2017-07-23T00:47:18.854Z,21.40
2017-07-23T00:49:46.302Z,21.30
2017-07-23T00:52:13.777Z,21.30
2017-07-23T00:54:41.334Z,21.30
2017-07-23T00:57:08.794Z,21.20
2017-07-23T00:59:36.239Z,21.10
2017-07-23T01:02:03.689Z,21.00
2017-07-23T01:04:31.148Z,20.90
2017-07-23T01:06:58.600Z,20.90
2017-07-23T01:09:26.050Z,20.80
2017-07-23T01:11:53.509Z,20.70
2017-07-23T01:14:20.977Z,20.60
2017-07-23T01:16:48.546Z,20.60
2017-07-23T01:19:16.006Z,20.60
2017-07-23T01:21:43.458Z,20.70
2017-07-23T01:24:10.926Z,20.60
2017-07-23T01:26:38.462Z,20.50
2017-07-23T01:29:05.917Z,20.50
2017-07-23T01:31:33.365Z,20.40
2017-07-23T01:34:00.943Z,20.30
2017-07-23T01:36:28.387Z,20.20
2017-07-23T01:38:56.555Z,20.10
2017-07-23T01:41:24.008Z,20.10
2017-07-23T01:43:51.461Z,20.00
2017-07-23T01:46:18.924Z,20.10
2017-07-23T01:48:46.391Z,20.10
2017-07-23T01:51:13.844Z,20.30
2017-07-23T01:53:41.398Z,20.30
2017-07-23T01:56:08.845Z,20.30
2017-07-23T01:58:36.302Z,20.30
2017-07-23T02:01:03.736Z,20.20
2017-07-23T02:03:31.232Z,20.20
2017-07-23T02:05:58.669Z,20.10
2017-07-23T02:08:26.142Z,20.10
2017-07-23T02:10:53.596Z,20.00
2017-07-23T02:13:21.059Z,20.00
2017-07-23T02:15:48.513Z,19.90
2017-07-23T02:18:15.945Z,20.00
2017-07-23T02:20:43.404Z,20.10
2017-07-23T02:23:10.852Z,20.10
2017-07-23T02:25:38.302Z,20.10
2017-07-23T02:28:05.757Z,20.10
2017-07-23T02:30:33.210Z,20.10
2017-07-23T02:33:00.702Z,20.10
2017-07-23T02:35:28.148Z,20.00
2017-07-23T02:37:55.601Z,20.10
2017-07-23T02:40:23.070Z,20.10
2017-07-23T02:42:50.626Z,20.00
2017-07-23T02:45:18.069Z,19.90
2017-07-23T02:47:45.529Z,19.80
2017-07-23T02:50:12.978Z,19.60
2017-07-23T02:52:40.443Z,19.50
2017-07-23T02:55:07.881Z,19.40
2017-07-23T02:57:35.343Z,19.40
2017-07-23T03:00:02.796Z,19.30
2017-07-23T03:02:30.257Z,19.30
2017-07-23T03:04:57.710Z,19.40
2017-07-23T03:07:25.177Z,19.30
2017-07-23T03:09:52.638Z,19.20
2017-07-23T03:12:20.086Z,19.10
2017-07-23T03:14:47.545Z,19.00
2017-07-23T03:17:15.001Z,18.80
2017-07-23T03:19:42.463Z,18.80
2017-07-23T03:22:09.922Z,18.70
2017-07-23T03:24:37.374Z,18.60
2017-07-23T03:27:04.823Z,18.50
2017-07-23T03:29:32.282Z,18.50
2017-07-23T03:31:59.749Z,18.50
2017-07-23T03:34:27.305Z,18.40
2017-07-23T03:36:54.750Z,18.20
2017-07-23T03:39:22.321Z,18.20
2017-07-23T03:41:49.781Z,18.10
2017-07-23T03:44:17.237Z,18.20
2017-07-23T03:46:44.711Z,18.30
2017-07-23T03:49:12.171Z,18.30
2017-07-23T03:51:40.398Z,18.30
2017-07-23T03:54:07.858Z,18.30
2017-07-23T03:56:35.309Z,18.30
2017-07-23T03:59:02.797Z,18.30
2017-07-23T04:01:30.349Z,18.30
2017-07-23T04:03:57.802Z,18.30
2017-07-23T04:06:25.280Z,18.30
2017-07-23T04:08:52.729Z,18.30
2017-07-23T04:11:20.277Z,18.20
2017-07-23T04:13:47.735Z,18.20
2017-07-23T04:16:15.197Z,18.10
2017-07-23T04:18:42.657Z,18.10
2017-07-23T04:21:10.105Z,18.10
2017-07-23T04:23:37.665Z,18.00
2017-07-23T04:26:05.225Z,18.00
2017-07-23T04:28:32.685Z,17.90
2017-07-23T04:31:00.142Z,17.80
2017-07-23T04:33:27.598Z,17.80
2017-07-23T04:35:55.056Z,17.90
2017-07-23T04:38:22.534Z,18.00
2017-07-23T04:40:50.747Z,18.10
2017-07-23T04:43:18.200Z,18.10
2017-07-23T04:45:45.686Z,18.10
2017-07-23T04:48:13.113Z,17.90
2017-07-23T04:50:40.576Z,17.80
2017-07-23T04:53:08.025Z,18.00
2017-07-23T04:55:35.484Z,18.10
2017-07-23T04:58:02.937Z,18.30
2017-07-23T05:00:30.430Z,18.40
2017-07-23T05:02:57.851Z,18.50
2017-07-23T05:05:25.333Z,18.70
2017-07-23T05:07:52.789Z,18.60
2017-07-23T05:10:20.235Z,18.60
2017-07-23T05:12:47.701Z,18.80
2017-07-23T05:15:15.261Z,19.00
2017-07-23T05:17:42.716Z,19.20
2017-07-23T05:20:10.290Z,19.30
2017-07-23T05:22:37.746Z,19.60
2017-07-23T05:25:05.189Z,19.90
2017-07-23T05:27:32.646Z,20.70
2017-07-23T05:30:00.089Z,21.80
2017-07-23T05:32:27.556Z,22.30
2017-07-23T05:34:54.997Z,23.00
2017-07-23T05:37:22.449Z,22.70
2017-07-23T05:39:49.897Z,22.70
2017-07-23T05:42:17.352Z,23.30
2017-07-23T05:44:44.845Z,23.30
2017-07-23T05:47:12.289Z,23.00
2017-07-23T05:49:39.774Z,22.60
2017-07-23T05:52:07.218Z,23.40
2017-07-23T05:54:34.681Z,24.40
2017-07-23T05:57:02.130Z,24.30
2017-07-23T05:59:29.593Z,23.50
2017-07-23T06:01:57.055Z,22.30
2017-07-23T06:04:24.594Z,21.90
2017-07-23T06:06:52.153Z,21.70
2017-07-23T06:09:19.602Z,21.60
2017-07-23T06:11:47.066Z,21.70
2017-07-23T06:14:14.522Z,21.60
2017-07-23T06:16:41.996Z,22.20
2017-07-23T06:19:09.446Z,23.00
2017-07-23T06:21:36.897Z,23.80
2017-07-23T06:24:04.772Z,24.10
2017-07-23T06:26:33.005Z,23.60
2017-07-23T06:29:00.466Z,23.60
2017-07-23T06:31:27.957Z,23.30
2017-07-23T06:33:55.415Z,23.50
2017-07-23T06:36:22.864Z,24.20
2017-07-23T06:38:50.330Z,23.30
2017-07-23T06:41:17.788Z,22.20
2017-07-23T06:43:45.241Z,21.60
2017-07-23T06:46:12.682Z,21.70
2017-07-23T06:48:40.139Z,21.20
2017-07-23T06:51:07.589Z,21.40
2017-07-23T06:53:35.055Z,21.30
2017-07-23T06:56:02.501Z,21.50
2017-07-23T06:58:29.958Z,21.80
2017-07-23T07:00:57.418Z,21.90
2017-07-23T07:03:24.870Z,21.90
2017-07-23T07:05:52.349Z,21.50
2017-07-23T07:08:19.812Z,21.20
2017-07-23T07:10:47.261Z,21.00
2017-07-23T07:13:14.823Z,21.00
2017-07-23T07:15:42.273Z,20.90
2017-07-23T07:18:09.727Z,20.70
2017-07-23T07:20:37.186Z,20.80
2017-07-23T07:23:04.632Z,20.60
2017-07-23T07:25:32.094Z,20.60
2017-07-23T07:27:59.551Z,20.50
2017-07-23T07:30:27.113Z,20.50
2017-07-23T07:32:54.567Z,20.70
2017-07-23T07:35:22.029Z,20.80
2017-07-23T07:37:49.490Z,21.00
2017-07-23T07:40:16.942Z,21.10
2017-07-23T07:42:44.401Z,21.10
2017-07-23T07:45:11.862Z,20.90
2017-07-23T07:47:39.319Z,21.00
2017-07-23T07:50:06.878Z,20.80
2017-07-23T07:52:35.134Z,20.90
2017-07-23T07:55:02.585Z,21.00
2017-07-23T07:57:30.042Z,21.00
2017-07-23T07:59:57.485Z,21.10
2017-07-23T08:02:24.946Z,21.10
2017-07-23T08:04:52.390Z,21.20
2017-07-23T08:07:19.985Z,21.00
2017-07-23T08:09:47.446Z,20.90
2017-07-23T08:12:14.881Z,20.80
2017-07-23T08:14:42.341Z,20.90
2017-07-23T08:17:09.785Z,21.30
2017-07-23T08:19:37.237Z,21.50
2017-07-23T08:22:04.682Z,21.60
2017-07-23T08:24:32.134Z,21.30
2017-07-23T08:26:59.633Z,21.30
2017-07-23T08:29:27.090Z,21.10
2017-07-23T08:31:54.650Z,21.40
2017-07-23T08:34:22.118Z,21.60
2017-07-23T08:36:49.560Z,21.60
2017-07-23T08:39:17.020Z,21.60
2017-07-23T08:41:44.479Z,21.50
2017-07-23T08:44:11.991Z,21.20
2017-07-23T08:46:39.444Z,21.30
2017-07-23T08:49:06.896Z,21.30
2017-07-23T08:51:34.410Z,21.00
2017-07-23T08:54:01.858Z,21.00
2017-07-23T08:56:29.313Z,20.70
2017-07-23T08:58:56.756Z,21.00
2017-07-23T09:01:24.213Z,21.50
2017-07-23T09:03:51.685Z,21.20
2017-07-23T09:06:19.246Z,21.10
2017-07-23T09:08:46.807Z,21.10
2017-07-23T09:11:14.267Z,21.00
2017-07-23T09:13:41.713Z,21.10
2017-07-23T09:16:09.190Z,21.10
2017-07-23T09:18:36.642Z,21.00
2017-07-23T09:21:04.082Z,20.60
2017-07-23T09:23:31.541Z,20.60
2017-07-23T09:26:01.863Z,20.90
2017-07-23T09:28:29.967Z,20.90
2017-07-23T09:30:58.176Z,21.50
2017-07-23T09:33:25.674Z,21.50
2017-07-23T09:35:53.128Z,21.50
2017-07-23T09:38:20.590Z,21.70
2017-07-23T09:40:48.059Z,22.20
2017-07-23T09:43:15.540Z,22.20
2017-07-23T09:45:42.992Z,22.40
2017-07-23T09:48:10.458Z,22.30
2017-07-23T09:50:37.940Z,22.60
2017-07-23T09:53:05.404Z,22.40
2017-07-23T09:55:33.165Z,21.70
2017-07-23T09:58:02.571Z,21.50
2017-07-23T10:00:30.046Z,21.30
2017-07-23T10:02:57.501Z,21.20
2017-07-23T10:05:24.977Z,21.00
2017-07-23T10:07:52.434Z,20.80
2017-07-23T10:10:20.650Z,21.30
2017-07-23T10:12:48.163Z,21.20
2017-07-23T10:15:15.979Z,21.20
2017-07-23T10:17:43.457Z,21.00
2017-07-23T10:20:10.939Z,21.20
2017-07-23T10:22:38.396Z,21.10
2017-07-23T10:25:05.854Z,21.20
2017-07-23T10:27:33.394Z,21.10
2017-07-23T10:30:00.844Z,21.00
2017-07-23T10:32:28.314Z,21.00
2017-07-23T10:34:55.773Z,20.80
2017-07-23T10:37:23.398Z,20.90
2017-07-23T10:39:50.860Z,20.80
2017-07-23T10:42:18.363Z,20.80
2017-07-23T10:44:46.596Z,20.90
2017-07-23T10:47:14.034Z,20.90
2017-07-23T10:49:41.530Z,21.00
2017-07-23T10:52:08.987Z,21.20
2017-07-23T10:54:36.454Z,21.50
2017-07-23T10:57:03.909Z,21.50
2017-07-23T10:59:31.385Z,21.70
2017-07-23T11:01:59.605Z,22.20
2017-07-23T11:04:27.087Z,22.20
2017-07-23T11:06:54.563Z,23.00
2017-07-23T11:09:22.013Z,23.10
2017-07-23T11:11:49.482Z,23.00
2017-07-23T11:14:17.695Z,22.50
2017-07-23T11:16:45.162Z,22.50
2017-07-23T11:19:12.626Z,23.00
2017-07-23T11:21:40.112Z,23.70
2017-07-23T11:24:07.557Z,23.90
2017-07-23T11:26:35.025Z,23.90
2017-07-23T11:29:02.497Z,24.70
2017-07-23T11:31:30.723Z,24.50
2017-07-23T11:33:58.190Z,24.50
2017-07-23T11:36:25.642Z,24.50
2017-07-23T11:38:53.098Z,23.40
2017-07-23T11:41:20.552Z,23.30
2017-07-23T11:43:48.014Z,23.40
2017-07-23T11:46:15.453Z,23.30
2017-07-23T11:48:42.943Z,23.50
2017-07-23T11:51:10.398Z,23.90
2017-07-23T11:53:37.866Z,23.40
2017-07-23T11:56:05.317Z,23.50
2017-07-23T11:58:32.770Z,23.30
2017-07-23T12:01:00.240Z,23.30
2017-07-23T12:03:28.474Z,23.90
2017-07-23T12:05:55.925Z,23.90
2017-07-23T12:08:23.390Z,24.10
2017-07-23T12:10:50.854Z,24.10
2017-07-23T12:13:18.325Z,24.30
2017-07-23T12:15:45.798Z,24.60
2017-07-23T12:18:13.241Z,24.00
2017-07-23T12:20:40.702Z,24.20
2017-07-23T12:23:08.158Z,24.00
2017-07-23T12:25:35.646Z,23.10
2017-07-23T12:28:03.891Z,23.50
2017-07-23T12:30:31.358Z,23.50
2017-07-23T12:32:58.817Z,23.70
2017-07-23T12:35:26.283Z,23.60
2017-07-23T12:37:54.509Z,23.20
2017-07-23T12:40:22.001Z,23.20
2017-07-23T12:42:49.553Z,23.00
2017-07-23T12:45:17.021Z,23.50
2017-07-23T12:47:45.295Z,24.20
2017-07-23T12:50:12.751Z,24.20
2017-07-23T12:52:40.211Z,24.10
2017-07-23T12:55:08.483Z,24.00
2017-07-23T12:57:35.949Z,24.00
2017-07-23T13:00:03.408Z,23.60
2017-07-23T13:02:31.620Z,24.40
2017-07-23T13:04:59.098Z,24.40
2017-07-23T13:07:26.570Z,24.30
2017-07-23T13:09:54.033Z,24.10
2017-07-23T13:12:21.502Z,23.90
2017-07-23T13:14:49.741Z,24.10
2017-07-23T13:17:17.218Z,24.00
2017-07-23T13:19:44.686Z,24.30
2017-07-23T13:22:12.145Z,24.30
2017-07-23T13:24:39.588Z,24.20
2017-07-23T13:27:07.042Z,23.90
2017-07-23T13:29:34.490Z,23.90
2017-07-23T13:32:01.954Z,23.50
2017-07-23T13:34:29.425Z,23.80
2017-07-23T13:36:56.965Z,23.50
2017-07-23T13:39:24.431Z,23.30
2017-07-23T13:41:51.905Z,23.30
2017-07-23T13:44:20.114Z,23.40
2017-07-23T13:46:47.563Z,23.40
2017-07-23T13:49:15.040Z,23.50
2017-07-23T13:51:42.534Z,23.40
2017-07-23T13:54:09.995Z,23.30
2017-07-23T13:56:37.450Z,23.20
2017-07-23T13:59:05.005Z,23.40
2017-07-23T14:01:32.452Z,23.40
2017-07-23T14:03:59.930Z,23.40
2017-07-23T14:06:27.378Z,23.50
2017-07-23T14:08:54.858Z,23.40
2017-07-23T14:11:23.077Z,23.30
2017-07-23T14:13:50.533Z,23.30
2017-07-23T14:16:19.022Z,23.30
2017-07-23T14:18:46.516Z,23.30
2017-07-23T14:21:14.776Z,23.40
2017-07-23T14:23:42.233Z,23.40
2017-07-23T14:26:09.699Z,23.80
2017-07-23T14:28:37.160Z,24.00
2017-07-23T14:31:05.394Z,24.10
2017-07-23T14:33:32.874Z,24.10
2017-07-23T14:36:00.342Z,24.20
2017-07-23T14:38:27.794Z,24.80
2017-07-23T14:40:55.257Z,25.20
2017-07-23T14:43:23.491Z,24.30
2017-07-23T14:45:50.941Z,24.20
2017-07-23T14:48:18.411Z,24.30
2017-07-23T14:50:45.862Z,24.30
2017-07-23T14:53:13.325Z,24.50
2017-07-23T14:55:40.797Z,24.60
2017-07-23T14:58:08.350Z,24.50
2017-07-23T15:00:35.921Z,24.10
2017-07-23T15:03:03.404Z,23.70
2017-07-23T15:05:31.633Z,23.20
2017-07-23T15:07:59.088Z,23.20
2017-07-23T15:10:26.549Z,23.10
2017-07-23T15:12:53.997Z,23.20
2017-07-23T15:15:21.491Z,23.30
2017-07-23T15:17:48.952Z,23.40
2017-07-23T15:20:16.403Z,23.60
2017-07-23T15:22:43.949Z,23.80
2017-07-23T15:25:11.521Z,23.40
2017-07-23T15:27:38.965Z,23.40
2017-07-23T15:30:06.415Z,23.10
2017-07-23T15:32:33.889Z,23.20
2017-07-23T15:35:02.122Z,23.00
2017-07-23T15:37:29.610Z,23.00
2017-07-23T15:39:57.070Z,23.20
2017-07-23T15:42:24.536Z,23.50
2017-07-23T15:44:51.982Z,23.90
2017-07-23T15:47:19.474Z,24.40
2017-07-23T15:49:47.686Z,23.60
2017-07-23T15:52:15.177Z,23.60
2017-07-23T15:54:42.645Z,23.70
2017-07-23T15:57:10.089Z,23.80
2017-07-23T15:59:38.354Z,23.00
2017-07-23T16:02:05.814Z,22.90
2017-07-23T16:04:33.285Z,22.50
2017-07-23T16:07:01.553Z,22.60
2017-07-23T16:09:29.008Z,22.60
2017-07-23T16:11:56.469Z,23.10
2017-07-23T16:14:24.694Z,23.40
2017-07-23T16:16:52.153Z,23.40
2017-07-23T16:19:19.611Z,23.10
2017-07-23T16:21:47.098Z,23.20
2017-07-23T16:24:14.545Z,23.20
2017-07-23T16:26:42.006Z,23.20
2017-07-23T16:29:09.462Z,23.10
2017-07-23T16:31:36.932Z,22.90
2017-07-23T16:34:04.387Z,22.40
2017-07-23T16:36:31.853Z,22.10
2017-07-23T16:38:59.602Z,22.00
2017-07-23T16:41:27.066Z,22.10
2017-07-23T16:43:54.530Z,22.00
2017-07-23T16:46:21.998Z,21.90
2017-07-23T16:48:50.266Z,21.70
2017-07-23T16:51:18.485Z,21.90
2017-07-23T16:53:45.941Z,21.90
2017-07-23T16:56:13.444Z,22.10
2017-07-23T16:58:40.896Z,22.00
2017-07-23T17:01:08.354Z,22.00
2017-07-23T17:03:35.896Z,21.80
2017-07-23T17:06:03.354Z,21.80
2017-07-23T17:08:30.815Z,21.90
2017-07-23T17:10:58.268Z,21.90
2017-07-23T17:13:25.742Z,21.70
2017-07-23T17:15:53.208Z,21.80
2017-07-23T17:18:21.444Z,21.80
2017-07-23T17:20:48.890Z,21.80
2017-07-23T17:23:16.391Z,21.70
2017-07-23T17:25:43.943Z,21.40
2017-07-23T17:28:11.390Z,21.30
2017-07-23T17:30:38.858Z,21.20
2017-07-23T17:33:06.402Z,21.30
2017-07-23T17:35:33.860Z,21.30
2017-07-23T17:38:07.858Z,21.30
2017-07-23T17:40:35.297Z,21.20
2017-07-23T17:43:02.757Z,21.20
2017-07-23T17:45:30.235Z,21.10
2017-07-23T17:47:57.697Z,21.00
2017-07-23T17:50:25.155Z,21.10
2017-07-23T17:52:52.605Z,21.00
2017-07-23T17:55:20.056Z,21.00
2017-07-23T17:57:47.518Z,21.10
2017-07-23T18:00:14.963Z,21.00
2017-07-23T18:02:43.050Z,21.00
2017-07-23T18:05:10.507Z,21.00
2017-07-23T18:07:37.945Z,20.90
2017-07-23T18:10:05.408Z,20.90
2017-07-23T18:12:32.865Z,20.80
2017-07-23T18:15:00.320Z,20.80
2017-07-23T18:17:28.834Z,20.70
2017-07-23T18:19:56.284Z,20.70
2017-07-23T18:22:23.842Z,20.60
2017-07-23T18:24:51.382Z,20.70
2017-07-23T18:27:18.844Z,20.60
2017-07-23T18:29:46.300Z,20.60
2017-07-23T18:32:13.749Z,20.60
2017-07-23T18:34:41.201Z,20.60
2017-07-23T18:37:09.329Z,20.60
2017-07-23T18:39:36.782Z,20.60
2017-07-23T18:42:04.306Z,20.60
2017-07-23T18:44:31.760Z,20.50
2017-07-23T18:46:59.231Z,20.30
2017-07-23T18:49:27.490Z,20.30
2017-07-23T18:51:54.953Z,20.30
2017-07-23T18:54:22.420Z,20.30
2017-07-23T18:56:49.882Z,20.20
2017-07-23T18:59:19.098Z,20.00
2017-07-23T19:01:46.562Z,19.90
2017-07-23T19:04:14.074Z,19.90
2017-07-23T19:06:41.561Z,19.90
2017-07-23T19:09:09.781Z,19.80
2017-07-23T19:11:37.235Z,19.80
2017-07-23T19:14:04.698Z,19.70
2017-07-23T19:16:32.141Z,19.60
2017-07-23T19:18:59.622Z,19.50
2017-07-23T19:21:28.092Z,19.50
2017-07-23T19:23:55.553Z,19.50
2017-07-23T19:26:22.999Z,19.50
2017-07-23T19:28:50.480Z,19.50
2017-07-23T19:31:18.027Z,19.40
2017-07-23T19:33:45.480Z,19.30
2017-07-23T19:36:12.929Z,19.20
2017-07-23T19:38:40.381Z,19.00
2017-07-23T19:41:07.836Z,18.90
2017-07-23T19:43:35.285Z,18.70
2017-07-23T19:46:02.745Z,18.60
2017-07-23T19:48:30.189Z,18.60
2017-07-23T19:50:57.690Z,18.60
2017-07-23T19:53:25.137Z,18.50
2017-07-23T19:55:52.601Z,18.50
2017-07-23T19:58:20.043Z,18.50
2017-07-23T20:00:47.510Z,18.60
2017-07-23T20:03:14.953Z,18.70
2017-07-23T20:05:42.510Z,18.70
2017-07-23T20:08:10.074Z,18.70
2017-07-23T20:10:37.527Z,18.70
2017-07-23T20:13:04.981Z,18.60
2017-07-23T20:15:32.434Z,18.70
2017-07-23T20:17:59.902Z,18.60
2017-07-23T20:20:27.350Z,18.60
2017-07-23T20:22:54.802Z,18.50
2017-07-23T20:25:22.264Z,18.50
2017-07-23T20:27:49.721Z,18.40
2017-07-23T20:30:17.174Z,18.40
2017-07-23T20:32:44.635Z,18.40
2017-07-23T20:35:12.078Z,18.40
2017-07-23T20:37:39.554Z,18.40
2017-07-23T20:40:07.005Z,18.50
2017-07-23T20:42:34.459Z,18.50
2017-07-23T20:45:01.909Z,18.50
2017-07-23T20:47:29.367Z,18.50
2017-07-23T20:49:56.823Z,18.50
2017-07-23T20:52:24.282Z,18.60
2017-07-23T20:54:51.837Z,18.50
2017-07-23T20:57:19.297Z,18.50
2017-07-23T20:59:46.757Z,18.40
2017-07-23T21:02:14.210Z,18.20
2017-07-23T21:04:41.665Z,18.30
2017-07-23T21:07:09.105Z,18.20
2017-07-23T21:09:36.585Z,18.20
2017-07-23T21:12:04.045Z,18.10
2017-07-23T21:14:31.517Z,18.10
2017-07-23T21:16:59.753Z,17.90
2017-07-23T21:19:27.201Z,17.90
2017-07-23T21:21:54.691Z,17.90
2017-07-23T21:24:22.241Z,18.00
2017-07-23T21:26:49.801Z,17.90
2017-07-23T21:29:17.253Z,17.80
2017-07-23T21:31:44.707Z,17.80
2017-07-23T21:34:12.153Z,17.60
2017-07-23T21:36:39.631Z,17.50
2017-07-23T21:39:07.081Z,17.40
2017-07-23T21:41:34.648Z,17.40
2017-07-23T21:44:02.098Z,17.50
2017-07-23T21:46:29.558Z,17.50
2017-07-23T21:48:57.021Z,17.50
2017-07-23T21:51:24.473Z,17.50
2017-07-23T21:53:51.929Z,17.50
2017-07-23T21:56:19.379Z,17.50
2017-07-23T21:58:46.931Z,17.60
2017-07-23T22:02:37.637Z,17.50
2017-07-23T22:05:05.201Z,17.40
2017-07-23T22:07:32.659Z,17.50
2017-07-23T22:10:00.135Z,17.50
2017-07-23T22:12:27.577Z,17.40
2017-07-23T22:14:55.130Z,17.50
2017-07-23T22:17:22.686Z,17.40
2017-07-23T22:19:50.130Z,17.30
2017-07-23T22:22:17.589Z,17.30
2017-07-23T22:24:45.040Z,17.10
2017-07-23T22:27:12.493Z,17.00
2017-07-23T22:29:39.941Z,17.00
2017-07-23T22:32:07.401Z,16.90
2017-07-23T22:34:34.853Z,16.80
2017-07-23T22:37:02.433Z,16.90
2017-07-23T22:39:29.878Z,16.90
2017-07-23T22:41:57.339Z,17.00
2017-07-23T22:44:24.803Z,16.90
2017-07-23T22:46:52.248Z,16.80
2017-07-23T22:49:19.710Z,16.70
2017-07-23T22:51:47.161Z,16.60
2017-07-23T22:54:14.730Z,16.60
2017-07-23T22:56:42.178Z,16.60
2017-07-23T22:59:09.638Z,16.70
2017-07-23T23:01:37.095Z,16.70
2017-07-23T23:04:04.656Z,16.70
2017-07-23T23:06:32.108Z,16.80
2017-07-23T23:08:59.565Z,16.70
2017-07-23T23:11:27.129Z,16.70
2017-07-23T23:13:54.589Z,16.80
2017-07-23T23:16:22.042Z,16.80
2017-07-23T23:18:49.492Z,16.80
2017-07-23T23:21:16.949Z,16.80
2017-07-23T23:23:44.406Z,16.80
2017-07-23T23:26:11.980Z,16.70
2017-07-23T23:28:39.425Z,16.70
2017-07-23T23:31:06.894Z,16.60
2017-07-23T23:33:34.354Z,16.50
2017-07-23T23:36:01.824Z,16.50
2017-07-23T23:38:30.057Z,16.40
2017-07-23T23:40:57.505Z,16.40
2017-07-23T23:43:24.966Z,16.40
2017-07-23T23:45:52.434Z,16.40
2017-07-23T23:48:19.890Z,16.50
2017-07-23T23:50:47.355Z,16.40
2017-07-23T23:53:14.809Z,16.30
2017-07-23T23:55:42.266Z,16.20
2017-07-23T23:58:09.735Z,16.40
